CheckWX is a tool to help pilots better visualize weather data.  It is not intended as a substitute for an official pre-flight weather briefing.

06:56:25 UTC

KCSV METAR
Crossville Memorial-Whitson Field Airport
Crossville, Tennessee, USA
Current

1 hour ago

KCSV 230553Z AUTO 12007KT 10SM OVC004 10/09 A3012 RMK AO2 SLP196 60005 T01000089 10100 20094 401000056 58029
Observed
Feb-23 @ 05:53 UTC
Wind
  • 120° at 7 KTS
Visibility
10 SM
Flight Rules
LIFR
Cloud Levels
  • Overcast at 400' AGL
Temperature
10°C / 50°F
Dewpoint
C / 48°F
Humidity
94%
Altimeter
30.12" Hg
Pressure
1019.6 hPa
Previous

2 hours ago

KCSV 230453Z AUTO 13004KT 10SM BKN003 BKN065 09/09 A3016 RMK AO2 SLP212 T00940089
Observed
Feb-23 @ 04:53 UTC
Wind
  • 130° at 4 KTS
Visibility
10 SM
Flight Rules
LIFR
Cloud Levels
  • Broken at 300' AGL
  • Broken at 6,500' AGL
Temperature
C / 48°F
Dewpoint
C / 48°F
Humidity
100%
Altimeter
30.16" Hg
Pressure
1021.2 hPa
Previous

3 hours ago

KCSV 230353Z AUTO 10003KT 10SM OVC004 09/09 A3021 RMK AO2 SLP229 T00940089
Observed
Feb-23 @ 03:53 UTC
Wind
  • 100° at 3 KTS
Visibility
10 SM
Flight Rules
LIFR
Cloud Levels
  • Overcast at 400' AGL
Temperature
C / 48°F
Dewpoint
C / 48°F
Humidity
100%
Altimeter
30.21" Hg
Pressure
1022.9 hPa